sensor_id;sensor_type;location;lat;lon;timestamp;P1;durP1;ratioP1;P2;durP2;ratioP2
7150;SDS011;3617;48.836;9.172;2022-09-01T00:00:47;21.37;;;13.97;;
7150;SDS011;3617;48.836;9.172;2022-09-01T00:03:17;17.47;;;12.33;;
7150;SDS011;3617;48.836;9.172;2022-09-01T00:05:45;18.90;;;13.03;;
7150;SDS011;3617;48.836;9.172;2022-09-01T00:08:14;19.23;;;13.00;;
7150;SDS011;3617;48.836;9.172;2022-09-01T00:10:40;16.67;;;12.20;;
7150;SDS011;3617;48.836;9.172;2022-09-01T00:13:07;17.33;;;12.53;;
7150;SDS011;3617;48.836;9.172;2022-09-01T00:15:33;15.37;;;12.23;;
7150;SDS011;3617;48.836;9.172;2022-09-01T00:18:00;17.13;;;12.60;;
7150;SDS011;3617;48.836;9.172;2022-09-01T00:20:26;17.47;;;12.90;;
7150;SDS011;3617;48.836;9.172;2022-09-01T00:22:52;18.50;;;13.13;;
7150;SDS011;3617;48.836;9.172;2022-09-01T00:25:19;19.93;;;13.30;;
7150;SDS011;3617;48.836;9.172;2022-09-01T00:27:47;17.33;;;13.83;;
7150;SDS011;3617;48.836;9.172;2022-09-01T00:30:14;19.90;;;13.20;;
7150;SDS011;3617;48.836;9.172;2022-09-01T00:32:40;19.77;;;13.77;;
7150;SDS011;3617;48.836;9.172;2022-09-01T00:35:10;18.73;;;12.80;;
7150;SDS011;3617;48.836;9.172;2022-09-01T00:37:36;17.60;;;13.33;;
7150;SDS011;3617;48.836;9.172;2022-09-01T00:40:03;19.23;;;12.67;;
7150;SDS011;3617;48.836;9.172;2022-09-01T00:42:29;18.47;;;13.47;;
7150;SDS011;3617;48.836;9.172;2022-09-01T00:44:55;19.43;;;13.67;;
7150;SDS011;3617;48.836;9.172;2022-09-01T00:47:21;19.60;;;13.93;;
7150;SDS011;3617;48.836;9.172;2022-09-01T00:49:47;17.67;;;13.70;;
7150;SDS011;3617;48.836;9.172;2022-09-01T00:54:44;18.47;;;14.00;;
7150;SDS011;3617;48.836;9.172;2022-09-01T00:57:11;19.30;;;14.07;;
7150;SDS011;3617;48.836;9.172;2022-09-01T00:59:38;18.13;;;13.60;;
7150;SDS011;3617;48.836;9.172;2022-09-01T01:02:07;18.97;;;14.00;;
7150;SDS011;3617;48.836;9.172;2022-09-01T01:04:35;20.07;;;13.57;;
7150;SDS011;3617;48.836;9.172;2022-09-01T01:07:01;16.17;;;12.37;;
7150;SDS011;3617;48.836;9.172;2022-09-01T01:09:32;18.40;;;13.17;;
7150;SDS011;3617;48.836;9.172;2022-09-01T01:11:59;15.53;;;12.30;;
7150;SDS011;3617;48.836;9.172;2022-09-01T01:14:27;16.73;;;12.97;;
7150;SDS011;3617;48.836;9.172;2022-09-01T01:16:55;18.50;;;12.93;;
7150;SDS011;3617;48.836;9.172;2022-09-01T01:22:15;21.33;;;13.10;;
7150;SDS011;3617;48.836;9.172;2022-09-01T01:25:02;17.20;;;13.23;;
7150;SDS011;3617;48.836;9.172;2022-09-01T01:27:32;17.77;;;13.40;;
7150;SDS011;3617;48.836;9.172;2022-09-01T01:29:59;17.33;;;13.03;;
7150;SDS011;3617;48.836;9.172;2022-09-01T01:32:25;21.70;;;13.07;;
7150;SDS011;3617;48.836;9.172;2022-09-01T01:34:53;16.30;;;12.40;;
7150;SDS011;3617;48.836;9.172;2022-09-01T01:37:20;15.20;;;12.13;;
7150;SDS011;3617;48.836;9.172;2022-09-01T01:39:49;20.43;;;12.90;;
7150;SDS011;3617;48.836;9.172;2022-09-01T01:42:15;16.40;;;12.20;;
7150;SDS011;3617;48.836;9.172;2022-09-01T01:44:42;16.10;;;12.20;;
7150;SDS011;3617;48.836;9.172;2022-09-01T01:47:09;17.93;;;12.30;;
7150;SDS011;3617;48.836;9.172;2022-09-01T01:49:37;15.93;;;12.40;;
7150;SDS011;3617;48.836;9.172;2022-09-01T01:52:04;18.13;;;11.67;;
7150;SDS011;3617;48.836;9.172;2022-09-01T01:54:30;15.87;;;11.57;;
7150;SDS011;3617;48.836;9.172;2022-09-01T01:56:57;16.53;;;12.00;;
7150;SDS011;3617;48.836;9.172;2022-09-01T01:59:23;14.73;;;10.70;;
7150;SDS011;3617;48.836;9.172;2022-09-01T02:01:50;13.37;;;10.73;;
7150;SDS011;3617;48.836;9.172;2022-09-01T02:04:18;14.00;;;10.97;;
7150;SDS011;3617;48.836;9.172;2022-09-01T02:06:44;16.47;;;11.23;;
7150;SDS011;3617;48.836;9.172;2022-09-01T02:09:12;15.80;;;11.37;;
7150;SDS011;3617;48.836;9.172;2022-09-01T02:11:38;16.67;;;12.53;;
7150;SDS011;3617;48.836;9.172;2022-09-01T02:14:05;17.57;;;12.73;;
7150;SDS011;3617;48.836;9.172;2022-09-01T02:16:32;15.03;;;11.40;;
7150;SDS011;3617;48.836;9.172;2022-09-01T02:18:59;18.10;;;12.57;;
7150;SDS011;3617;48.836;9.172;2022-09-01T02:21:25;16.80;;;11.53;;
7150;SDS011;3617;48.836;9.172;2022-09-01T02:23:54;13.70;;;10.90;;
7150;SDS011;3617;48.836;9.172;2022-09-01T02:26:27;17.40;;;11.83;;
7150;SDS011;3617;48.836;9.172;2022-09-01T02:28:56;13.80;;;10.90;;
7150;SDS011;3617;48.836;9.172;2022-09-01T02:31:26;18.60;;;11.33;;
7150;SDS011;3617;48.836;9.172;2022-09-01T02:33:52;17.70;;;11.17;;
7150;SDS011;3617;48.836;9.172;2022-09-01T02:36:18;13.13;;;10.53;;
7150;SDS011;3617;48.836;9.172;2022-09-01T02:38:45;14.50;;;10.60;;
7150;SDS011;3617;48.836;9.172;2022-09-01T02:41:13;12.87;;;10.10;;
7150;SDS011;3617;48.836;9.172;2022-09-01T02:43:39;17.07;;;11.67;;
7150;SDS011;3617;48.836;9.172;2022-09-01T02:46:10;15.63;;;12.33;;
7150;SDS011;3617;48.836;9.172;2022-09-01T02:48:37;15.70;;;12.43;;
7150;SDS011;3617;48.836;9.172;2022-09-01T02:51:08;18.83;;;12.30;;
7150;SDS011;3617;48.836;9.172;2022-09-01T02:53:34;16.13;;;12.23;;
7150;SDS011;3617;48.836;9.172;2022-09-01T02:56:01;14.93;;;11.73;;
7150;SDS011;3617;48.836;9.172;2022-09-01T02:58:28;17.27;;;12.33;;
7150;SDS011;3617;48.836;9.172;2022-09-01T03:00:57;20.47;;;13.30;;
7150;SDS011;3617;48.836;9.172;2022-09-01T03:03:23;17.07;;;12.10;;
7150;SDS011;3617;48.836;9.172;2022-09-01T03:05:50;17.00;;;12.53;;
7150;SDS011;3617;48.836;9.172;2022-09-01T03:08:19;17.43;;;12.67;;
7150;SDS011;3617;48.836;9.172;2022-09-01T03:10:46;16.27;;;12.00;;
7150;SDS011;3617;48.836;9.172;2022-09-01T03:13:13;21.20;;;14.30;;
7150;SDS011;3617;48.836;9.172;2022-09-01T03:15:40;17.80;;;13.53;;
7150;SDS011;3617;48.836;9.172;2022-09-01T03:18:06;17.83;;;12.60;;
7150;SDS011;3617;48.836;9.172;2022-09-01T03:20:35;19.87;;;13.43;;
7150;SDS011;3617;48.836;9.172;2022-09-01T03:23:03;18.67;;;13.50;;
7150;SDS011;3617;48.836;9.172;2022-09-01T03:25:32;18.17;;;13.73;;
7150;SDS011;3617;48.836;9.172;2022-09-01T03:27:58;21.23;;;14.77;;
7150;SDS011;3617;48.836;9.172;2022-09-01T03:30:25;21.27;;;13.97;;
7150;SDS011;3617;48.836;9.172;2022-09-01T03:32:53;19.70;;;14.03;;
7150;SDS011;3617;48.836;9.172;2022-09-01T03:35:19;21.40;;;15.53;;
7150;SDS011;3617;48.836;9.172;2022-09-01T03:37:46;23.83;;;14.47;;
7150;SDS011;3617;48.836;9.172;2022-09-01T03:40:12;20.07;;;14.80;;
7150;SDS011;3617;48.836;9.172;2022-09-01T03:42:40;23.53;;;16.57;;
7150;SDS011;3617;48.836;9.172;2022-09-01T03:45:07;21.07;;;14.83;;
7150;SDS011;3617;48.836;9.172;2022-09-01T03:47:37;20.37;;;14.53;;
7150;SDS011;3617;48.836;9.172;2022-09-01T03:50:05;22.27;;;14.63;;
7150;SDS011;3617;48.836;9.172;2022-09-01T03:52:34;24.60;;;16.20;;
7150;SDS011;3617;48.836;9.172;2022-09-01T03:55:00;21.53;;;14.77;;
7150;SDS011;3617;48.836;9.172;2022-09-01T03:57:27;23.20;;;15.23;;
7150;SDS011;3617;48.836;9.172;2022-09-01T03:59:53;22.50;;;16.00;;
7150;SDS011;3617;48.836;9.172;2022-09-01T04:02:20;22.53;;;15.37;;
7150;SDS011;3617;48.836;9.172;2022-09-01T04:04:47;22.07;;;15.67;;
7150;SDS011;3617;48.836;9.172;2022-09-01T04:07:13;22.67;;;14.57;;
7150;SDS011;3617;48.836;9.172;2022-09-01T04:09:39;22.17;;;15.00;;
7150;SDS011;3617;48.836;9.172;2022-09-01T04:12:08;22.43;;;14.33;;
7150;SDS011;3617;48.836;9.172;2022-09-01T04:14:34;22.83;;;14.90;;
7150;SDS011;3617;48.836;9.172;2022-09-01T04:17:00;22.20;;;14.70;;
7150;SDS011;3617;48.836;9.172;2022-09-01T04:19:45;21.53;;;14.53;;
7150;SDS011;3617;48.836;9.172;2022-09-01T04:22:12;19.10;;;13.50;;
7150;SDS011;3617;48.836;9.172;2022-09-01T04:24:39;18.70;;;13.47;;
7150;SDS011;3617;48.836;9.172;2022-09-01T04:27:09;19.63;;;13.50;;
7150;SDS011;3617;48.836;9.172;2022-09-01T04:29:35;18.47;;;12.87;;
7150;SDS011;3617;48.836;9.172;2022-09-01T04:32:03;22.47;;;13.97;;
7150;SDS011;3617;48.836;9.172;2022-09-01T04:34:31;21.87;;;13.73;;
7150;SDS011;3617;48.836;9.172;2022-09-01T04:37:08;21.23;;;14.80;;
7150;SDS011;3617;48.836;9.172;2022-09-01T04:39:37;22.03;;;15.33;;
7150;SDS011;3617;48.836;9.172;2022-09-01T04:42:03;20.60;;;14.87;;
7150;SDS011;3617;48.836;9.172;2022-09-01T04:44:30;24.67;;;15.33;;
7150;SDS011;3617;48.836;9.172;2022-09-01T04:46:56;23.40;;;15.57;;
7150;SDS011;3617;48.836;9.172;2022-09-01T04:49:22;22.10;;;14.87;;
7150;SDS011;3617;48.836;9.172;2022-09-01T04:51:51;21.90;;;15.00;;
7150;SDS011;3617;48.836;9.172;2022-09-01T04:54:17;24.93;;;16.63;;
7150;SDS011;3617;48.836;9.172;2022-09-01T04:56:45;23.07;;;15.20;;
7150;SDS011;3617;48.836;9.172;2022-09-01T04:59:13;24.30;;;15.67;;
7150;SDS011;3617;48.836;9.172;2022-09-01T05:01:40;22.20;;;15.23;;
7150;SDS011;3617;48.836;9.172;2022-09-01T05:04:13;21.50;;;14.83;;
7150;SDS011;3617;48.836;9.172;2022-09-01T05:06:41;20.07;;;14.20;;
7150;SDS011;3617;48.836;9.172;2022-09-01T05:09:08;23.57;;;14.47;;
7150;SDS011;3617;48.836;9.172;2022-09-01T05:11:35;19.37;;;13.57;;
7150;SDS011;3617;48.836;9.172;2022-09-01T05:14:03;22.63;;;14.87;;
7150;SDS011;3617;48.836;9.172;2022-09-01T05:16:30;24.23;;;15.07;;
7150;SDS011;3617;48.836;9.172;2022-09-01T05:18:57;21.03;;;14.40;;
7150;SDS011;3617;48.836;9.172;2022-09-01T05:21:25;21.33;;;14.50;;
7150;SDS011;3617;48.836;9.172;2022-09-01T05:23:54;20.70;;;13.97;;
7150;SDS011;3617;48.836;9.172;2022-09-01T05:26:22;20.20;;;14.13;;
7150;SDS011;3617;48.836;9.172;2022-09-01T05:28:50;19.33;;;14.03;;
7150;SDS011;3617;48.836;9.172;2022-09-01T05:31:20;20.70;;;13.93;;
7150;SDS011;3617;48.836;9.172;2022-09-01T05:33:46;18.47;;;14.10;;
7150;SDS011;3617;48.836;9.172;2022-09-01T05:36:14;22.53;;;13.60;;
7150;SDS011;3617;48.836;9.172;2022-09-01T05:38:42;20.83;;;14.30;;
7150;SDS011;3617;48.836;9.172;2022-09-01T05:41:09;19.87;;;13.97;;
7150;SDS011;3617;48.836;9.172;2022-09-01T05:43:39;18.57;;;13.23;;
7150;SDS011;3617;48.836;9.172;2022-09-01T05:46:10;19.20;;;13.40;;
7150;SDS011;3617;48.836;9.172;2022-09-01T05:48:37;19.50;;;13.73;;
7150;SDS011;3617;48.836;9.172;2022-09-01T05:51:04;21.10;;;13.63;;
7150;SDS011;3617;48.836;9.172;2022-09-01T05:53:30;20.43;;;13.90;;
7150;SDS011;3617;48.836;9.172;2022-09-01T05:55:58;20.57;;;12.63;;
7150;SDS011;3617;48.836;9.172;2022-09-01T05:58:25;16.60;;;11.87;;
7150;SDS011;3617;48.836;9.172;2022-09-01T06:00:52;17.93;;;12.33;;
7150;SDS011;3617;48.836;9.172;2022-09-01T06:03:20;16.67;;;11.27;;
7150;SDS011;3617;48.836;9.172;2022-09-01T06:05:46;15.20;;;11.07;;
7150;SDS011;3617;48.836;9.172;2022-09-01T06:08:16;17.30;;;11.60;;
7150;SDS011;3617;48.836;9.172;2022-09-01T06:10:42;18.33;;;12.40;;
7150;SDS011;3617;48.836;9.172;2022-09-01T06:13:09;17.47;;;12.33;;
7150;SDS011;3617;48.836;9.172;2022-09-01T06:15:36;18.10;;;11.80;;
7150;SDS011;3617;48.836;9.172;2022-09-01T06:18:03;16.50;;;11.30;;
7150;SDS011;3617;48.836;9.172;2022-09-01T06:20:30;18.67;;;12.43;;
7150;SDS011;3617;48.836;9.172;2022-09-01T06:22:56;19.77;;;11.80;;
7150;SDS011;3617;48.836;9.172;2022-09-01T06:25:22;16.80;;;11.47;;
7150;SDS011;3617;48.836;9.172;2022-09-01T06:27:50;15.37;;;11.33;;
7150;SDS011;3617;48.836;9.172;2022-09-01T06:30:17;14.73;;;10.63;;
7150;SDS011;3617;48.836;9.172;2022-09-01T06:32:50;14.10;;;10.70;;
7150;SDS011;3617;48.836;9.172;2022-09-01T06:35:18;15.50;;;10.83;;
7150;SDS011;3617;48.836;9.172;2022-09-01T06:37:45;16.60;;;10.70;;
7150;SDS011;3617;48.836;9.172;2022-09-01T06:40:12;12.53;;;9.37;;
7150;SDS011;3617;48.836;9.172;2022-09-01T06:42:43;15.87;;;10.60;;
7150;SDS011;3617;48.836;9.172;2022-09-01T06:45:11;14.20;;;10.33;;
7150;SDS011;3617;48.836;9.172;2022-09-01T06:47:38;13.67;;;10.50;;
7150;SDS011;3617;48.836;9.172;2022-09-01T06:50:07;13.67;;;10.53;;
7150;SDS011;3617;48.836;9.172;2022-09-01T06:52:34;13.67;;;10.37;;
7150;SDS011;3617;48.836;9.172;2022-09-01T06:55:04;15.57;;;10.60;;
7150;SDS011;3617;48.836;9.172;2022-09-01T06:57:30;14.93;;;10.77;;
7150;SDS011;3617;48.836;9.172;2022-09-01T06:59:56;16.90;;;10.60;;
7150;SDS011;3617;48.836;9.172;2022-09-01T07:02:22;14.93;;;10.50;;
7150;SDS011;3617;48.836;9.172;2022-09-01T07:04:48;17.40;;;11.20;;
7150;SDS011;3617;48.836;9.172;2022-09-01T07:07:14;14.57;;;10.90;;
7150;SDS011;3617;48.836;9.172;2022-09-01T07:09:40;16.23;;;10.97;;
7150;SDS011;3617;48.836;9.172;2022-09-01T07:12:07;14.23;;;10.23;;
7150;SDS011;3617;48.836;9.172;2022-09-01T07:14:34;14.10;;;10.55;;
7150;SDS011;3617;48.836;9.172;2022-09-01T07:17:00;13.73;;;9.80;;
7150;SDS011;3617;48.836;9.172;2022-09-01T07:19:26;15.15;;;10.77;;
7150;SDS011;3617;48.836;9.172;2022-09-01T07:21:52;18.10;;;10.90;;
7150;SDS011;3617;48.836;9.172;2022-09-01T07:24:19;13.20;;;9.37;;
7150;SDS011;3617;48.836;9.172;2022-09-01T07:26:45;14.77;;;10.82;;
7150;SDS011;3617;48.836;9.172;2022-09-01T07:29:14;14.23;;;10.15;;
7150;SDS011;3617;48.836;9.172;2022-09-01T07:31:41;13.57;;;10.20;;
7150;SDS011;3617;48.836;9.172;2022-09-01T07:34:09;14.65;;;9.48;;
7150;SDS011;3617;48.836;9.172;2022-09-01T07:36:37;13.30;;;10.05;;
7150;SDS011;3617;48.836;9.172;2022-09-01T07:39:03;13.55;;;9.73;;
7150;SDS011;3617;48.836;9.172;2022-09-01T07:41:29;13.73;;;9.75;;
7150;SDS011;3617;48.836;9.172;2022-09-01T07:43:58;13.05;;;9.38;;
7150;SDS011;3617;48.836;9.172;2022-09-01T07:46:25;12.68;;;8.68;;
7150;SDS011;3617;48.836;9.172;2022-09-01T07:48:52;13.38;;;9.13;;
7150;SDS011;3617;48.836;9.172;2022-09-01T07:51:20;12.35;;;9.05;;
7150;SDS011;3617;48.836;9.172;2022-09-01T07:53:47;14.30;;;8.65;;
7150;SDS011;3617;48.836;9.172;2022-09-01T07:56:14;10.70;;;8.52;;
7150;SDS011;3617;48.836;9.172;2022-09-01T07:58:42;11.30;;;7.65;;
7150;SDS011;3617;48.836;9.172;2022-09-01T08:01:09;10.43;;;8.02;;
7150;SDS011;3617;48.836;9.172;2022-09-01T08:03:36;13.05;;;7.97;;
7150;SDS011;3617;48.836;9.172;2022-09-01T08:06:04;10.45;;;7.97;;
7150;SDS011;3617;48.836;9.172;2022-09-01T08:08:30;10.38;;;7.28;;
7150;SDS011;3617;48.836;9.172;2022-09-01T08:10:57;10.90;;;7.75;;
7150;SDS011;3617;48.836;9.172;2022-09-01T08:13:23;9.95;;;7.22;;
7150;SDS011;3617;48.836;9.172;2022-09-01T08:15:49;8.80;;;7.35;;
7150;SDS011;3617;48.836;9.172;2022-09-01T08:18:15;11.25;;;7.28;;
7150;SDS011;3617;48.836;9.172;2022-09-01T08:20:42;9.23;;;7.05;;
7150;SDS011;3617;48.836;9.172;2022-09-01T08:23:10;8.68;;;6.68;;
7150;SDS011;3617;48.836;9.172;2022-09-01T08:25:36;11.18;;;7.18;;
7150;SDS011;3617;48.836;9.172;2022-09-01T08:28:03;11.48;;;7.32;;
7150;SDS011;3617;48.836;9.172;2022-09-01T08:30:29;10.93;;;7.22;;
7150;SDS011;3617;48.836;9.172;2022-09-01T08:32:59;8.68;;;6.50;;
7150;SDS011;3617;48.836;9.172;2022-09-01T08:35:26;10.18;;;7.57;;
7150;SDS011;3617;48.836;9.172;2022-09-01T08:37:55;8.18;;;6.15;;
7150;SDS011;3617;48.836;9.172;2022-09-01T08:40:22;7.10;;;5.45;;
7150;SDS011;3617;48.836;9.172;2022-09-01T08:42:54;8.02;;;5.35;;
7150;SDS011;3617;48.836;9.172;2022-09-01T08:45:32;7.15;;;5.32;;
7150;SDS011;3617;48.836;9.172;2022-09-01T08:48:05;7.75;;;5.07;;
7150;SDS011;3617;48.836;9.172;2022-09-01T08:50:33;6.85;;;5.10;;
7150;SDS011;3617;48.836;9.172;2022-09-01T08:53:04;6.25;;;4.95;;
7150;SDS011;3617;48.836;9.172;2022-09-01T08:55:41;6.07;;;4.80;;
7150;SDS011;3617;48.836;9.172;2022-09-01T08:58:09;5.97;;;4.47;;
7150;SDS011;3617;48.836;9.172;2022-09-01T09:00:37;5.35;;;4.53;;
7150;SDS011;3617;48.836;9.172;2022-09-01T09:13:11;4.28;;;3.40;;
7150;SDS011;3617;48.836;9.172;2022-09-01T09:15:43;5.45;;;3.95;;
7150;SDS011;3617;48.836;9.172;2022-09-01T09:18:18;4.88;;;3.72;;
7150;SDS011;3617;48.836;9.172;2022-09-01T09:20:45;3.78;;;3.33;;
7150;SDS011;3617;48.836;9.172;2022-09-01T09:23:25;5.85;;;4.07;;
7150;SDS011;3617;48.836;9.172;2022-09-01T09:25:54;7.38;;;4.10;;
7150;SDS011;3617;48.836;9.172;2022-09-01T09:28:21;5.00;;;4.35;;
7150;SDS011;3617;48.836;9.172;2022-09-01T09:30:47;5.18;;;4.10;;
7150;SDS011;3617;48.836;9.172;2022-09-01T09:33:31;4.57;;;3.90;;
7150;SDS011;3617;48.836;9.172;2022-09-01T09:36:14;5.45;;;4.15;;
7150;SDS011;3617;48.836;9.172;2022-09-01T09:38:40;5.15;;;4.18;;
7150;SDS011;3617;48.836;9.172;2022-09-01T09:41:07;4.72;;;4.20;;
7150;SDS011;3617;48.836;9.172;2022-09-01T09:43:44;7.53;;;5.07;;
7150;SDS011;3617;48.836;9.172;2022-09-01T09:49:07;5.85;;;4.30;;
7150;SDS011;3617;48.836;9.172;2022-09-01T09:51:34;4.65;;;3.85;;
7150;SDS011;3617;48.836;9.172;2022-09-01T09:54:17;6.53;;;4.60;;
7150;SDS011;3617;48.836;9.172;2022-09-01T09:56:44;5.25;;;4.20;;
7150;SDS011;3617;48.836;9.172;2022-09-01T09:59:18;5.57;;;4.20;;
7150;SDS011;3617;48.836;9.172;2022-09-01T10:01:44;5.82;;;4.22;;
7150;SDS011;3617;48.836;9.172;2022-09-01T10:04:13;5.57;;;3.95;;
7150;SDS011;3617;48.836;9.172;2022-09-01T10:06:55;4.57;;;4.13;;
7150;SDS011;3617;48.836;9.172;2022-09-01T10:11:51;4.95;;;3.95;;
7150;SDS011;3617;48.836;9.172;2022-09-01T10:14:19;5.30;;;4.22;;
7150;SDS011;3617;48.836;9.172;2022-09-01T10:16:46;4.30;;;3.90;;
7150;SDS011;3617;48.836;9.172;2022-09-01T10:19:14;6.30;;;4.30;;
7150;SDS011;3617;48.836;9.172;2022-09-01T10:21:40;4.45;;;3.80;;
7150;SDS011;3617;48.836;9.172;2022-09-01T10:26:41;4.53;;;3.67;;
7150;SDS011;3617;48.836;9.172;2022-09-01T10:29:12;4.00;;;3.60;;
7150;SDS011;3617;48.836;9.172;2022-09-01T10:31:39;5.00;;;4.10;;
7150;SDS011;3617;48.836;9.172;2022-09-01T10:34:05;5.10;;;3.58;;
7150;SDS011;3617;48.836;9.172;2022-09-01T10:36:32;4.65;;;4.00;;
7150;SDS011;3617;48.836;9.172;2022-09-01T10:39:00;5.35;;;3.35;;
7150;SDS011;3617;48.836;9.172;2022-09-01T10:44:28;4.15;;;3.75;;
7150;SDS011;3617;48.836;9.172;2022-09-01T10:46:59;4.40;;;3.72;;
7150;SDS011;3617;48.836;9.172;2022-09-01T10:51:51;3.92;;;3.53;;
7150;SDS011;3617;48.836;9.172;2022-09-01T10:55:19;3.88;;;3.47;;
7150;SDS011;3617;48.836;9.172;2022-09-01T10:59:48;3.80;;;3.20;;
7150;SDS011;3617;48.836;9.172;2022-09-01T11:02:18;3.22;;;2.92;;
7150;SDS011;3617;48.836;9.172;2022-09-01T11:10:05;3.75;;;3.30;;
7150;SDS011;3617;48.836;9.172;2022-09-01T11:12:35;3.28;;;2.97;;
7150;SDS011;3617;48.836;9.172;2022-09-01T11:17:53;3.13;;;2.83;;
7150;SDS011;3617;48.836;9.172;2022-09-01T11:27:58;3.80;;;3.20;;
7150;SDS011;3617;48.836;9.172;2022-09-01T11:33:18;4.95;;;2.70;;
7150;SDS011;3617;48.836;9.172;2022-09-01T11:35:47;4.32;;;2.92;;
7150;SDS011;3617;48.836;9.172;2022-09-01T11:38:21;3.42;;;2.65;;
7150;SDS011;3617;48.836;9.172;2022-09-01T11:40:53;4.45;;;3.13;;
7150;SDS011;3617;48.836;9.172;2022-09-01T11:43:19;3.78;;;2.97;;
7150;SDS011;3617;48.836;9.172;2022-09-01T11:48:50;2.60;;;2.40;;
7150;SDS011;3617;48.836;9.172;2022-09-01T11:51:16;3.13;;;2.65;;
7150;SDS011;3617;48.836;9.172;2022-09-01T11:53:43;2.60;;;2.40;;
7150;SDS011;3617;48.836;9.172;2022-09-01T11:56:14;2.60;;;2.40;;
7150;SDS011;3617;48.836;9.172;2022-09-01T11:58:40;3.30;;;2.60;;
7150;SDS011;3617;48.836;9.172;2022-09-01T12:01:14;3.05;;;2.60;;
7150;SDS011;3617;48.836;9.172;2022-09-01T12:03:40;2.95;;;2.65;;
7150;SDS011;3617;48.836;9.172;2022-09-01T12:06:07;3.03;;;2.72;;
7150;SDS011;3617;48.836;9.172;2022-09-01T12:08:35;5.03;;;2.90;;
7150;SDS011;3617;48.836;9.172;2022-09-01T12:11:12;2.63;;;2.42;;
7150;SDS011;3617;48.836;9.172;2022-09-01T12:13:53;3.00;;;2.67;;
7150;SDS011;3617;48.836;9.172;2022-09-01T12:16:20;3.20;;;2.67;;
7150;SDS011;3617;48.836;9.172;2022-09-01T12:18:46;3.22;;;2.90;;
7150;SDS011;3617;48.836;9.172;2022-09-01T12:21:18;4.38;;;2.90;;
7150;SDS011;3617;48.836;9.172;2022-09-01T12:23:45;4.65;;;2.80;;
7150;SDS011;3617;48.836;9.172;2022-09-01T12:26:16;2.97;;;2.67;;
7150;SDS011;3617;48.836;9.172;2022-09-01T12:28:43;4.15;;;2.67;;
7150;SDS011;3617;48.836;9.172;2022-09-01T12:31:14;2.97;;;2.63;;
7150;SDS011;3617;48.836;9.172;2022-09-01T12:33:41;3.13;;;2.40;;
7150;SDS011;3617;48.836;9.172;2022-09-01T12:36:14;3.05;;;2.70;;
7150;SDS011;3617;48.836;9.172;2022-09-01T12:38:45;3.30;;;2.97;;
7150;SDS011;3617;48.836;9.172;2022-09-01T12:43:49;3.17;;;2.78;;
7150;SDS011;3617;48.836;9.172;2022-09-01T12:46:38;2.53;;;2.33;;
7150;SDS011;3617;48.836;9.172;2022-09-01T12:49:20;2.90;;;2.65;;
7150;SDS011;3617;48.836;9.172;2022-09-01T12:51:48;3.30;;;3.00;;
7150;SDS011;3617;48.836;9.172;2022-09-01T12:54:16;2.90;;;2.60;;
7150;SDS011;3617;48.836;9.172;2022-09-01T12:56:49;2.85;;;2.55;;
7150;SDS011;3617;48.836;9.172;2022-09-01T12:59:20;3.20;;;2.78;;
7150;SDS011;3617;48.836;9.172;2022-09-01T13:01:46;3.63;;;2.88;;
7150;SDS011;3617;48.836;9.172;2022-09-01T13:06:51;3.38;;;2.63;;
7150;SDS011;3617;48.836;9.172;2022-09-01T13:09:17;2.70;;;2.50;;
7150;SDS011;3617;48.836;9.172;2022-09-01T13:11:43;5.43;;;3.00;;
7150;SDS011;3617;48.836;9.172;2022-09-01T13:14:14;3.65;;;3.10;;
7150;SDS011;3617;48.836;9.172;2022-09-01T13:16:40;4.18;;;3.00;;
7150;SDS011;3617;48.836;9.172;2022-09-01T13:19:06;3.25;;;2.90;;
7150;SDS011;3617;48.836;9.172;2022-09-01T13:21:33;3.70;;;2.83;;
7150;SDS011;3617;48.836;9.172;2022-09-01T13:24:00;2.90;;;2.60;;
7150;SDS011;3617;48.836;9.172;2022-09-01T13:26:27;2.92;;;2.60;;
7150;SDS011;3617;48.836;9.172;2022-09-01T13:28:55;3.22;;;2.97;;
7150;SDS011;3617;48.836;9.172;2022-09-01T13:31:21;3.30;;;3.00;;
7150;SDS011;3617;48.836;9.172;2022-09-01T13:33:48;3.03;;;2.72;;
7150;SDS011;3617;48.836;9.172;2022-09-01T13:36:14;2.88;;;2.60;;
7150;SDS011;3617;48.836;9.172;2022-09-01T13:38:40;2.90;;;2.70;;
7150;SDS011;3617;48.836;9.172;2022-09-01T13:41:06;3.38;;;3.08;;
7150;SDS011;3617;48.836;9.172;2022-09-01T13:43:35;4.82;;;3.22;;
7150;SDS011;3617;48.836;9.172;2022-09-01T13:46:01;3.40;;;3.10;;
7150;SDS011;3617;48.836;9.172;2022-09-01T13:48:27;2.97;;;2.55;;
7150;SDS011;3617;48.836;9.172;2022-09-01T13:50:53;3.22;;;2.60;;
7150;SDS011;3617;48.836;9.172;2022-09-01T13:53:19;2.55;;;2.35;;
7150;SDS011;3617;48.836;9.172;2022-09-01T13:55:45;3.17;;;2.85;;
7150;SDS011;3617;48.836;9.172;2022-09-01T13:58:12;3.63;;;2.95;;
7150;SDS011;3617;48.836;9.172;2022-09-01T14:00:39;3.65;;;2.85;;
7150;SDS011;3617;48.836;9.172;2022-09-01T14:03:07;3.65;;;3.00;;
7150;SDS011;3617;48.836;9.172;2022-09-01T14:05:35;3.40;;;3.03;;
7150;SDS011;3617;48.836;9.172;2022-09-01T14:08:01;3.65;;;2.75;;
7150;SDS011;3617;48.836;9.172;2022-09-01T14:10:28;2.75;;;2.55;;
7150;SDS011;3617;48.836;9.172;2022-09-01T14:12:56;3.30;;;3.00;;
7150;SDS011;3617;48.836;9.172;2022-09-01T14:15:22;4.70;;;2.80;;
7150;SDS011;3617;48.836;9.172;2022-09-01T14:17:49;3.67;;;2.88;;
7150;SDS011;3617;48.836;9.172;2022-09-01T14:20:17;4.32;;;3.00;;
7150;SDS011;3617;48.836;9.172;2022-09-01T14:22:43;3.08;;;2.78;;
7150;SDS011;3617;48.836;9.172;2022-09-01T14:25:10;3.30;;;3.00;;
7150;SDS011;3617;48.836;9.172;2022-09-01T14:27:36;2.83;;;2.63;;
7150;SDS011;3617;48.836;9.172;2022-09-01T14:30:06;3.22;;;2.92;;
7150;SDS011;3617;48.836;9.172;2022-09-01T14:32:33;3.78;;;3.17;;
7150;SDS011;3617;48.836;9.172;2022-09-01T14:35:00;3.10;;;2.80;;
7150;SDS011;3617;48.836;9.172;2022-09-01T14:37:26;3.10;;;2.75;;
7150;SDS011;3617;48.836;9.172;2022-09-01T14:39:52;4.25;;;3.05;;
7150;SDS011;3617;48.836;9.172;2022-09-01T14:42:19;3.90;;;3.22;;
7150;SDS011;3617;48.836;9.172;2022-09-01T14:44:45;3.53;;;3.10;;
7150;SDS011;3617;48.836;9.172;2022-09-01T14:47:12;2.97;;;2.65;;
7150;SDS011;3617;48.836;9.172;2022-09-01T14:49:38;3.28;;;2.88;;
7150;SDS011;3617;48.836;9.172;2022-09-01T14:52:05;3.13;;;2.83;;
7150;SDS011;3617;48.836;9.172;2022-09-01T14:54:33;3.30;;;2.60;;
7150;SDS011;3617;48.836;9.172;2022-09-01T14:56:59;3.67;;;3.00;;
7150;SDS011;3617;48.836;9.172;2022-09-01T14:59:25;6.35;;;3.15;;
7150;SDS011;3617;48.836;9.172;2022-09-01T15:01:51;3.72;;;3.10;;
7150;SDS011;3617;48.836;9.172;2022-09-01T15:04:17;3.03;;;2.72;;
7150;SDS011;3617;48.836;9.172;2022-09-01T15:06:43;5.25;;;3.20;;
7150;SDS011;3617;48.836;9.172;2022-09-01T15:09:09;4.45;;;2.70;;
7150;SDS011;3617;48.836;9.172;2022-09-01T15:11:35;3.10;;;2.83;;
7150;SDS011;3617;48.836;9.172;2022-09-01T15:14:02;6.25;;;2.90;;
7150;SDS011;3617;48.836;9.172;2022-09-01T15:16:28;3.30;;;2.80;;
7150;SDS011;3617;48.836;9.172;2022-09-01T15:18:54;6.35;;;3.05;;
7150;SDS011;3617;48.836;9.172;2022-09-01T15:21:21;3.95;;;2.80;;
7150;SDS011;3617;48.836;9.172;2022-09-01T15:23:48;2.75;;;2.20;;
7150;SDS011;3617;48.836;9.172;2022-09-01T15:26:14;2.90;;;2.60;;
7150;SDS011;3617;48.836;9.172;2022-09-01T15:28:41;3.28;;;2.22;;
7150;SDS011;3617;48.836;9.172;2022-09-01T15:31:07;2.55;;;2.35;;
7150;SDS011;3617;48.836;9.172;2022-09-01T15:33:34;2.45;;;2.25;;
7150;SDS011;3617;48.836;9.172;2022-09-01T15:36:00;2.60;;;2.40;;
7150;SDS011;3617;48.836;9.172;2022-09-01T15:38:26;2.67;;;2.47;;
7150;SDS011;3617;48.836;9.172;2022-09-01T15:40:53;2.63;;;2.42;;
7150;SDS011;3617;48.836;9.172;2022-09-01T15:43:19;3.13;;;2.22;;
7150;SDS011;3617;48.836;9.172;2022-09-01T15:45:46;2.60;;;2.40;;
7150;SDS011;3617;48.836;9.172;2022-09-01T15:48:12;2.58;;;2.38;;
7150;SDS011;3617;48.836;9.172;2022-09-01T15:50:38;3.35;;;2.20;;
7150;SDS011;3617;48.836;9.172;2022-09-01T15:53:05;3.03;;;2.53;;
7150;SDS011;3617;48.836;9.172;2022-09-01T15:55:43;2.70;;;2.50;;
7150;SDS011;3617;48.836;9.172;2022-09-01T15:58:10;3.17;;;2.40;;
7150;SDS011;3617;48.836;9.172;2022-09-01T16:00:36;3.38;;;2.90;;
7150;SDS011;3617;48.836;9.172;2022-09-01T16:03:03;2.95;;;2.67;;